createdAt,value
2022-10-05T00:00:49.701Z,9.30
2022-10-05T00:03:16.364Z,8.23
2022-10-05T00:05:45.977Z,10.30
2022-10-05T00:08:15.419Z,8.43
2022-10-05T00:10:42.606Z,8.15
2022-10-05T00:13:13.955Z,9.43
2022-10-05T00:15:41.916Z,7.75
2022-10-05T00:18:18.947Z,8.68
2022-10-05T00:20:47.336Z,8.50
2022-10-05T00:23:18.693Z,8.07
2022-10-05T00:25:45.935Z,8.70
2022-10-05T00:28:22.724Z,8.13
2022-10-05T00:30:50.710Z,8.60
2022-10-05T00:33:17.286Z,7.20
2022-10-05T00:35:43.793Z,7.60
2022-10-05T00:38:10.423Z,7.83
2022-10-05T00:40:46.080Z,8.75
2022-10-05T00:43:30.564Z,7.88
2022-10-05T00:46:04.902Z,7.68
2022-10-05T00:48:39.899Z,9.18
2022-10-05T00:51:18.066Z,7.60
2022-10-05T00:53:54.201Z,8.07
2022-10-05T00:56:38.517Z,8.65
2022-10-05T00:59:17.528Z,10.38
2022-10-05T01:01:55.042Z,8.02
2022-10-05T01:04:26.736Z,10.17
2022-10-05T01:07:04.158Z,6.53
2022-10-05T01:09:35.927Z,7.32
2022-10-05T01:12:08.901Z,6.82
2022-10-05T01:14:48.441Z,7.70
2022-10-05T01:17:23.509Z,8.60
2022-10-05T01:20:15.571Z,8.70
2022-10-05T01:23:07.359Z,7.07
2022-10-05T01:25:44.379Z,7.22
2022-10-05T01:28:21.620Z,7.10
2022-10-05T01:30:54.939Z,9.13
2022-10-05T01:33:28.507Z,10.55
2022-10-05T01:36:03.050Z,7.20
2022-10-05T01:38:44.795Z,8.93
2022-10-05T01:41:22.742Z,7.75
2022-10-05T01:43:55.012Z,8.80
2022-10-05T01:46:28.692Z,8.63
2022-10-05T01:49:13.139Z,7.53
2022-10-05T01:51:48.097Z,11.68
2022-10-05T01:54:25.483Z,7.35
2022-10-05T01:57:02.886Z,7.80
2022-10-05T01:59:43.340Z,7.53
2022-10-05T02:02:12.859Z,7.10
2022-10-05T02:05:01.504Z,7.47
2022-10-05T02:07:36.806Z,6.90
2022-10-05T02:10:13.780Z,10.07
2022-10-05T02:12:42.876Z,7.80
2022-10-05T02:15:14.826Z,7.68
2022-10-05T02:17:45.521Z,8.13
2022-10-05T02:20:17.306Z,9.00
2022-10-05T02:22:47.067Z,8.73
2022-10-05T02:25:16.592Z,11.20
2022-10-05T02:27:49.422Z,7.78
2022-10-05T02:30:19.224Z,7.53
2022-10-05T02:32:51.504Z,7.80
2022-10-05T02:35:20.031Z,8.30
2022-10-05T02:38:05.500Z,7.78
2022-10-05T02:40:44.598Z,8.20
2022-10-05T02:43:22.768Z,8.70
2022-10-05T02:45:58.019Z,8.73
2022-10-05T02:48:34.930Z,8.63
2022-10-05T02:51:07.684Z,7.22
2022-10-05T02:53:42.322Z,9.88
2022-10-05T02:56:21.603Z,7.53
2022-10-05T02:58:57.365Z,9.15
2022-10-05T03:01:31.426Z,8.37
2022-10-05T03:04:08.909Z,8.20
2022-10-05T03:06:45.093Z,7.45
2022-10-05T03:09:14.188Z,8.80
2022-10-05T03:11:46.850Z,8.35
2022-10-05T03:14:23.236Z,8.03
2022-10-05T03:17:00.852Z,8.95
2022-10-05T03:19:41.481Z,8.70
2022-10-05T03:22:22.519Z,8.05
2022-10-05T03:25:17.152Z,9.27
2022-10-05T03:27:54.218Z,8.73
2022-10-05T03:30:23.035Z,8.82
2022-10-05T03:33:01.503Z,9.18
2022-10-05T03:35:31.591Z,9.38
2022-10-05T03:38:09.448Z,8.77
2022-10-05T03:40:39.762Z,8.10
2022-10-05T03:43:31.614Z,7.90
2022-10-05T03:46:05.120Z,8.55
2022-10-05T03:48:44.279Z,8.23
2022-10-05T03:51:18.371Z,9.52
2022-10-05T03:53:50.770Z,8.13
2022-10-05T03:56:27.500Z,9.70
2022-10-05T03:58:59.516Z,11.63
2022-10-05T04:01:39.930Z,9.02
2022-10-05T04:04:16.220Z,8.80
2022-10-05T04:06:47.957Z,8.73
2022-10-05T04:09:18.202Z,7.70
2022-10-05T04:11:50.727Z,8.25
2022-10-05T04:14:22.453Z,8.63
2022-10-05T04:16:54.832Z,9.18
2022-10-05T04:19:27.658Z,9.23
2022-10-05T04:22:03.140Z,11.40
2022-10-05T04:24:35.030Z,9.07
2022-10-05T04:27:07.515Z,8.93
2022-10-05T04:29:40.955Z,11.07
2022-10-05T04:32:29.534Z,9.40
2022-10-05T04:35:13.056Z,10.13
2022-10-05T04:37:47.203Z,10.50
2022-10-05T04:40:26.534Z,8.43
2022-10-05T04:43:05.404Z,7.97
2022-10-05T04:45:45.303Z,7.60
2022-10-05T04:48:27.680Z,10.55
2022-10-05T04:51:08.793Z,9.90
2022-10-05T04:53:42.227Z,10.65
2022-10-05T04:56:15.264Z,9.82
2022-10-05T04:59:06.745Z,10.43
2022-10-05T05:01:47.532Z,8.93
2022-10-05T05:04:36.285Z,10.45
2022-10-05T05:07:19.401Z,9.48
2022-10-05T05:10:20.032Z,13.50
2022-10-05T05:12:57.627Z,15.23
2022-10-05T05:15:41.464Z,13.88
2022-10-05T05:18:36.652Z,15.82
2022-10-05T05:21:16.417Z,15.55
2022-10-05T05:23:50.096Z,16.65
2022-10-05T05:26:23.837Z,15.37
2022-10-05T05:29:02.410Z,15.77
2022-10-05T05:31:39.521Z,17.92
2022-10-05T05:34:19.884Z,20.60
2022-10-05T05:36:57.384Z,19.92
2022-10-05T05:39:29.337Z,20.97
2022-10-05T05:42:01.702Z,25.85
2022-10-05T05:44:37.805Z,24.33
2022-10-05T05:47:17.605Z,31.80
2022-10-05T05:50:02.920Z,34.05
2022-10-05T05:52:39.150Z,40.27
2022-10-05T05:55:15.188Z,43.17
2022-10-05T05:57:46.943Z,49.28
2022-10-05T06:00:21.057Z,42.55
2022-10-05T06:02:55.519Z,42.90
2022-10-05T06:05:28.716Z,38.47
2022-10-05T06:07:58.109Z,35.63
2022-10-05T06:10:38.123Z,33.65
2022-10-05T06:13:12.977Z,30.48
2022-10-05T06:15:43.702Z,29.75
2022-10-05T06:18:13.525Z,27.73
2022-10-05T06:20:45.143Z,24.23
2022-10-05T06:23:18.192Z,25.27
2022-10-05T06:26:10.519Z,24.27
2022-10-05T06:28:37.780Z,19.38
2022-10-05T06:31:16.302Z,19.77
2022-10-05T06:33:49.150Z,22.27
2022-10-05T06:36:27.988Z,24.17
2022-10-05T06:39:26.388Z,21.95
2022-10-05T06:42:07.596Z,20.70
2022-10-05T06:44:43.509Z,22.43
2022-10-05T06:47:18.017Z,21.38
2022-10-05T06:49:53.249Z,20.70
2022-10-05T06:52:28.520Z,24.15
2022-10-05T06:55:14.346Z,18.45
2022-10-05T06:57:54.346Z,19.70
2022-10-05T07:00:23.365Z,18.33
2022-10-05T07:02:57.421Z,19.63
2022-10-05T07:05:42.816Z,19.25
2022-10-05T07:08:12.130Z,17.80
2022-10-05T07:10:44.592Z,17.13
2022-10-05T07:13:33.231Z,18.85
2022-10-05T07:16:09.299Z,19.13
2022-10-05T07:18:58.109Z,17.35
2022-10-05T07:21:36.080Z,15.98
2022-10-05T07:24:12.738Z,18.70
2022-10-05T07:26:45.228Z,17.30
2022-10-05T07:29:29.091Z,16.65
2022-10-05T07:32:07.274Z,16.80
2022-10-05T07:34:46.589Z,16.63
2022-10-05T07:37:19.909Z,16.60
2022-10-05T07:40:00.566Z,15.73
2022-10-05T07:42:48.885Z,16.35
2022-10-05T07:45:27.530Z,16.35
2022-10-05T07:47:56.620Z,16.13
2022-10-05T07:50:29.245Z,13.93
2022-10-05T07:52:58.183Z,17.52
2022-10-05T07:55:26.632Z,14.35
2022-10-05T07:58:06.285Z,15.57
2022-10-05T08:01:04.184Z,15.30
2022-10-05T08:03:42.856Z,15.90
2022-10-05T08:06:13.344Z,17.10
2022-10-05T08:08:49.769Z,15.75
2022-10-05T08:11:18.912Z,15.35
2022-10-05T08:13:51.464Z,17.80
2022-10-05T08:16:19.761Z,17.73
2022-10-05T08:18:56.760Z,15.60
2022-10-05T08:21:30.059Z,16.67
2022-10-05T08:24:03.349Z,16.55
2022-10-05T08:26:38.493Z,16.48
2022-10-05T08:29:15.629Z,15.03
2022-10-05T08:31:46.896Z,14.32
2022-10-05T08:34:23.516Z,14.55
2022-10-05T08:37:03.586Z,16.83
2022-10-05T08:39:36.061Z,12.43
2022-10-05T08:42:25.899Z,13.87
2022-10-05T08:45:18.108Z,13.82
2022-10-05T08:48:20.875Z,15.80
2022-10-05T08:51:07.630Z,15.60
2022-10-05T08:54:09.600Z,13.57
2022-10-05T08:56:42.692Z,12.37
2022-10-05T08:59:29.792Z,13.65
2022-10-05T09:02:17.027Z,12.43
2022-10-05T09:05:02.256Z,17.27
2022-10-05T09:08:04.266Z,10.35
2022-10-05T09:11:02.094Z,11.00
2022-10-05T09:13:51.015Z,10.98
2022-10-05T09:16:41.332Z,10.90
2022-10-05T09:19:52.771Z,10.90
2022-10-05T09:22:36.331Z,9.73
2022-10-05T09:25:18.811Z,10.43
2022-10-05T09:27:52.728Z,10.73
2022-10-05T09:30:24.830Z,10.75
2022-10-05T09:33:18.355Z,9.82
2022-10-05T09:36:04.894Z,10.15
2022-10-05T09:38:47.415Z,10.13
2022-10-05T09:41:47.836Z,9.30
2022-10-05T09:44:52.837Z,8.65
2022-10-05T09:47:49.342Z,10.75
2022-10-05T09:50:52.629Z,8.75
2022-10-05T09:53:48.338Z,7.20
2022-10-05T09:59:23.524Z,8.48
2022-10-05T10:02:13.650Z,6.90
2022-10-05T10:05:13.782Z,7.15
2022-10-05T10:08:05.535Z,7.17
2022-10-05T10:11:01.391Z,5.85
2022-10-05T10:13:58.839Z,6.22
2022-10-05T10:16:35.396Z,6.00
2022-10-05T10:19:11.271Z,6.28
2022-10-05T10:22:28.262Z,7.27
2022-10-05T10:25:17.783Z,8.18
2022-10-05T10:28:06.582Z,7.30
2022-10-05T10:31:00.459Z,6.15
2022-10-05T10:33:48.048Z,6.50
2022-10-05T10:36:19.947Z,5.93
2022-10-05T10:38:54.219Z,6.20
2022-10-05T10:41:58.722Z,6.40
2022-10-05T10:45:07.413Z,5.78
2022-10-05T10:47:44.882Z,5.40
2022-10-05T10:50:39.247Z,6.90
2022-10-05T10:53:22.200Z,5.78
2022-10-05T10:56:06.537Z,5.10
2022-10-05T10:58:51.056Z,7.05
2022-10-05T11:01:32.687Z,5.43
2022-10-05T11:04:36.683Z,6.13
2022-10-05T11:07:33.789Z,5.43
2022-10-05T11:10:30.658Z,5.57
2022-10-05T11:13:40.152Z,4.97
2022-10-05T11:16:54.803Z,6.68
2022-10-05T11:20:08.610Z,6.80
2022-10-05T11:22:55.848Z,5.03
2022-10-05T11:25:42.660Z,5.70
2022-10-05T11:28:34.720Z,6.00
2022-10-05T11:31:35.416Z,6.20
2022-10-05T11:34:38.433Z,5.30
2022-10-05T11:37:38.396Z,5.35
2022-10-05T11:40:33.079Z,5.47
2022-10-05T11:43:21.716Z,5.20
2022-10-05T11:46:00.621Z,7.05
2022-10-05T11:48:59.870Z,5.50
2022-10-05T11:51:38.232Z,5.47
2022-10-05T11:54:52.164Z,6.43
2022-10-05T11:57:25.729Z,6.15
2022-10-05T11:59:58.149Z,6.50
2022-10-05T12:02:48.019Z,5.70
2022-10-05T12:05:19.805Z,5.63
2022-10-05T12:07:58.614Z,6.00
2022-10-05T12:10:34.046Z,6.47
2022-10-05T12:13:17.944Z,6.20
2022-10-05T12:15:49.913Z,5.90
2022-10-05T12:18:23.748Z,6.38
2022-10-05T12:20:56.252Z,6.30
2022-10-05T12:23:29.530Z,6.38
2022-10-05T12:26:02.062Z,6.15
2022-10-05T12:28:36.766Z,7.80
2022-10-05T12:31:15.992Z,6.43
2022-10-05T12:33:50.840Z,7.75
2022-10-05T12:36:20.930Z,6.90
2022-10-05T12:38:54.831Z,6.88
2022-10-05T12:41:27.907Z,6.37
2022-10-05T12:44:10.267Z,9.52
2022-10-05T12:46:45.371Z,8.25
2022-10-05T12:49:28.144Z,8.35
2022-10-05T12:51:57.489Z,7.10
2022-10-05T12:54:35.912Z,7.70
2022-10-05T12:57:12.597Z,7.72
2022-10-05T12:59:46.505Z,6.90
2022-10-05T13:02:25.433Z,7.22
2022-10-05T13:04:59.686Z,16.00
2022-10-05T13:07:47.787Z,7.57
2022-10-05T13:10:25.959Z,6.80
2022-10-05T13:13:05.552Z,7.97
2022-10-05T13:15:40.296Z,9.30
2022-10-05T13:18:18.238Z,8.80
2022-10-05T13:20:49.412Z,8.50
2022-10-05T13:23:24.544Z,8.45
2022-10-05T13:25:57.986Z,15.00
2022-10-05T13:28:30.980Z,8.00
2022-10-05T13:31:05.455Z,7.05
2022-10-05T13:33:43.435Z,7.50
2022-10-05T13:36:18.577Z,9.02
2022-10-05T13:38:57.379Z,8.18
2022-10-05T13:41:33.058Z,7.32
2022-10-05T13:44:13.876Z,7.22
2022-10-05T13:46:48.860Z,8.20
2022-10-05T13:49:32.176Z,8.07
2022-10-05T13:52:11.893Z,6.75
2022-10-05T13:54:45.720Z,6.65
2022-10-05T13:57:23.172Z,9.68
2022-10-05T13:59:53.681Z,6.80
2022-10-05T14:02:27.137Z,8.10
2022-10-05T14:04:59.151Z,7.47
2022-10-05T14:07:31.907Z,9.00
2022-10-05T14:09:58.977Z,7.30
2022-10-05T14:12:26.886Z,6.73
2022-10-05T14:14:55.028Z,6.75
2022-10-05T14:17:37.174Z,8.43
2022-10-05T14:20:18.523Z,9.50
2022-10-05T14:22:51.395Z,8.45
2022-10-05T14:25:18.579Z,8.93
2022-10-05T14:27:50.887Z,7.80
2022-10-05T14:30:20.522Z,9.20
2022-10-05T14:32:52.927Z,8.30
2022-10-05T14:35:20.487Z,9.27
2022-10-05T14:37:51.436Z,8.17
2022-10-05T14:40:32.866Z,7.50
2022-10-05T14:43:16.993Z,8.43
2022-10-05T14:45:56.248Z,7.45
2022-10-05T14:48:25.466Z,7.60
2022-10-05T14:50:54.697Z,7.00
2022-10-05T14:53:23.314Z,8.55
2022-10-05T14:56:26.704Z,6.97
2022-10-05T14:59:18.385Z,6.85
2022-10-05T15:01:52.432Z,6.68
2022-10-05T15:04:43.122Z,6.97
2022-10-05T15:07:21.455Z,8.32
2022-10-05T15:10:02.512Z,8.43
2022-10-05T15:12:32.457Z,6.55
2022-10-05T15:15:04.673Z,6.07
2022-10-05T15:17:36.861Z,7.43
2022-10-05T15:20:16.498Z,6.55
2022-10-05T15:22:49.913Z,6.93
2022-10-05T15:25:21.610Z,7.30
2022-10-05T15:28:02.463Z,6.45
2022-10-05T15:30:30.400Z,7.13
2022-10-05T15:33:12.147Z,7.65
2022-10-05T15:35:46.903Z,7.75
2022-10-05T15:38:17.240Z,6.40
2022-10-05T15:40:49.152Z,6.55
2022-10-05T15:43:19.718Z,7.73
2022-10-05T15:45:55.645Z,7.75
2022-10-05T15:48:28.446Z,6.78
2022-10-05T15:51:02.880Z,8.02
2022-10-05T15:53:37.150Z,6.15
2022-10-05T15:56:09.338Z,6.13
2022-10-05T15:58:52.515Z,7.07
2022-10-05T16:01:27.473Z,5.25
2022-10-05T16:04:01.052Z,5.43
2022-10-05T16:06:42.324Z,6.13
2022-10-05T16:09:23.750Z,5.67
2022-10-05T16:12:02.896Z,5.00
2022-10-05T16:14:41.838Z,6.55
2022-10-05T16:17:19.445Z,7.35
2022-10-05T16:19:56.759Z,14.73
2022-10-05T16:22:38.831Z,6.60
2022-10-05T16:25:14.838Z,7.80
2022-10-05T16:27:59.520Z,10.25
2022-10-05T16:30:38.441Z,5.93
2022-10-05T16:33:15.048Z,6.03
2022-10-05T16:35:50.705Z,8.13
2022-10-05T16:38:28.175Z,8.35
2022-10-05T16:41:02.077Z,7.20
2022-10-05T16:43:39.570Z,7.25
2022-10-05T16:46:15.272Z,7.05
2022-10-05T16:48:54.642Z,6.20
2022-10-05T16:51:28.481Z,6.53
2022-10-05T16:54:11.896Z,5.20
2022-10-05T16:56:43.382Z,5.35
2022-10-05T16:59:45.426Z,6.55
2022-10-05T17:02:24.032Z,4.90
2022-10-05T17:05:02.483Z,5.97
2022-10-05T17:07:48.256Z,5.60
2022-10-05T17:10:38.846Z,6.00
2022-10-05T17:13:20.815Z,6.97
2022-10-05T17:16:03.351Z,6.27
2022-10-05T17:18:58.316Z,7.15
2022-10-05T17:21:32.036Z,6.18
2022-10-05T17:24:12.254Z,7.10
2022-10-05T17:26:56.145Z,7.90
2022-10-05T17:29:28.209Z,6.40
2022-10-05T17:32:08.052Z,8.77
2022-10-05T17:34:37.955Z,6.53
2022-10-05T17:37:32.273Z,7.45
2022-10-05T17:39:58.822Z,8.02
2022-10-05T17:42:46.201Z,6.27
2022-10-05T17:45:55.209Z,7.13
2022-10-05T17:48:58.065Z,6.88
2022-10-05T17:51:58.876Z,10.20
2022-10-05T17:54:28.767Z,9.02
2022-10-05T17:57:21.633Z,7.00
2022-10-05T17:59:59.703Z,7.40
2022-10-05T18:02:41.026Z,8.13
2022-10-05T18:05:23.555Z,6.32
2022-10-05T18:08:30.356Z,7.93
2022-10-05T18:11:32.899Z,8.27
2022-10-05T18:14:17.750Z,8.75
2022-10-05T18:17:01.409Z,8.63
2022-10-05T18:19:29.363Z,7.93
2022-10-05T18:22:00.969Z,7.97
2022-10-05T18:25:02.299Z,7.77
2022-10-05T18:28:10.383Z,8.50
2022-10-05T18:30:52.903Z,8.30
2022-10-05T18:33:34.603Z,7.85
2022-10-05T18:36:11.905Z,8.25
2022-10-05T18:38:52.432Z,9.10
2022-10-05T18:41:24.108Z,8.15
2022-10-05T18:44:02.667Z,7.97
2022-10-05T18:46:39.051Z,9.95
2022-10-05T18:49:24.809Z,10.02
2022-10-05T18:52:02.206Z,9.20
2022-10-05T18:54:47.371Z,9.52
2022-10-05T18:57:41.300Z,9.55
2022-10-05T19:00:15.167Z,7.80
2022-10-05T19:02:47.110Z,10.18
2022-10-05T19:05:46.442Z,9.77
2022-10-05T19:08:19.023Z,10.52
2022-10-05T19:10:50.452Z,9.10
2022-10-05T19:13:29.844Z,10.52
2022-10-05T19:16:13.579Z,10.63
2022-10-05T19:18:53.815Z,9.73
2022-10-05T19:21:32.015Z,10.32
2022-10-05T19:24:20.514Z,9.35
2022-10-05T19:27:00.808Z,8.98
2022-10-05T19:29:40.910Z,7.82
2022-10-05T19:32:18.239Z,9.27
2022-10-05T19:35:01.145Z,8.52
2022-10-05T19:37:40.170Z,8.90
2022-10-05T19:40:16.449Z,9.63
2022-10-05T19:43:07.798Z,11.68
2022-10-05T19:45:41.631Z,8.10
2022-10-05T19:48:25.039Z,8.73
2022-10-05T19:50:54.389Z,8.07
2022-10-05T19:53:26.042Z,8.38
2022-10-05T19:55:52.779Z,9.85
2022-10-05T19:58:22.109Z,7.10
2022-10-05T20:00:54.900Z,8.00
2022-10-05T20:03:23.668Z,10.07
2022-10-05T20:05:50.212Z,8.82
2022-10-05T20:08:18.914Z,8.07
2022-10-05T20:11:04.237Z,6.83
2022-10-05T20:13:30.979Z,8.60
2022-10-05T20:16:17.964Z,6.05
2022-10-05T20:18:48.445Z,7.20
2022-10-05T20:21:38.390Z,7.57
2022-10-05T20:24:09.913Z,8.03
2022-10-05T20:26:42.148Z,6.78
2022-10-05T20:29:09.011Z,7.22
2022-10-05T20:31:35.554Z,6.68
2022-10-05T20:34:02.045Z,7.05
2022-10-05T20:36:28.654Z,8.10
2022-10-05T20:38:55.170Z,6.43
2022-10-05T20:41:21.725Z,8.25
2022-10-05T20:43:49.604Z,7.40
2022-10-05T20:46:16.111Z,8.82
2022-10-05T20:48:42.763Z,7.23
2022-10-05T20:51:09.261Z,6.75
2022-10-05T20:53:35.917Z,5.72
2022-10-05T20:56:02.484Z,6.13
2022-10-05T20:58:29.294Z,7.25
2022-10-05T21:00:57.739Z,6.97
2022-10-05T21:03:24.364Z,6.57
2022-10-05T21:05:50.896Z,6.63
2022-10-05T21:08:17.534Z,7.00
2022-10-05T21:10:44.042Z,7.38
2022-10-05T21:13:10.569Z,7.23
2022-10-05T21:15:37.111Z,6.00
2022-10-05T21:18:05.072Z,5.95
2022-10-05T21:20:31.563Z,6.10
2022-10-05T21:22:58.165Z,6.35
2022-10-05T21:25:24.639Z,6.00
2022-10-05T21:27:51.159Z,7.40
2022-10-05T21:30:19.354Z,8.07
2022-10-05T21:32:46.017Z,6.57
2022-10-05T21:35:14.070Z,8.02
2022-10-05T21:37:40.568Z,7.63
2022-10-05T21:40:07.764Z,8.27
2022-10-05T21:42:34.332Z,7.45
2022-10-05T21:45:00.846Z,6.20
2022-10-05T21:47:27.374Z,7.70
2022-10-05T21:49:54.116Z,6.77
2022-10-05T21:52:22.179Z,9.48
2022-10-05T21:54:49.010Z,6.97
2022-10-05T21:57:15.756Z,8.45
2022-10-05T21:59:43.205Z,7.35
2022-10-05T22:02:09.700Z,6.97
2022-10-05T22:04:36.328Z,6.70
2022-10-05T22:07:09.600Z,7.13
2022-10-05T22:09:37.446Z,7.85
2022-10-05T22:12:04.284Z,6.35
2022-10-05T22:14:30.820Z,7.90
2022-10-05T22:16:57.318Z,6.57
2022-10-05T22:19:23.958Z,6.57
2022-10-05T22:21:50.659Z,7.90
2022-10-05T22:24:17.150Z,6.30
2022-10-05T22:26:47.407Z,8.10
2022-10-05T22:29:15.748Z,6.60
2022-10-05T22:31:42.373Z,11.57
2022-10-05T22:34:08.932Z,7.07
2022-10-05T22:36:36.267Z,5.85
2022-10-05T22:39:03.184Z,7.20
2022-10-05T22:41:29.725Z,6.03
2022-10-05T22:43:57.724Z,6.90
2022-10-05T22:46:24.246Z,7.18
2022-10-05T22:48:50.826Z,8.30
2022-10-05T22:51:17.511Z,6.13
2022-10-05T22:53:44.011Z,6.25
2022-10-05T22:56:12.284Z,7.93
2022-10-05T22:58:40.084Z,8.30
2022-10-05T23:01:10.246Z,7.20
2022-10-05T23:03:37.211Z,5.83
2022-10-05T23:06:05.508Z,9.00
2022-10-05T23:08:33.204Z,7.78
2022-10-05T23:11:02.577Z,9.13
2022-10-05T23:13:29.329Z,10.55
2022-10-05T23:15:55.895Z,7.97
2022-10-05T23:18:23.979Z,5.88
2022-10-05T23:20:53.928Z,7.22
2022-10-05T23:23:20.723Z,6.90
2022-10-05T23:25:47.223Z,8.07
2022-10-05T23:28:13.913Z,7.80
2022-10-05T23:30:40.571Z,5.93
2022-10-05T23:33:07.209Z,7.53
2022-10-05T23:35:35.043Z,8.45
2022-10-05T23:38:01.593Z,5.65
2022-10-05T23:40:28.083Z,9.20
2022-10-05T23:42:54.605Z,6.55
2022-10-05T23:45:21.218Z,6.20
2022-10-05T23:47:47.730Z,8.75
2022-10-05T23:50:14.274Z,6.80
2022-10-05T23:52:42.232Z,8.00
2022-10-05T23:55:09.573Z,8.82
2022-10-05T23:57:36.155Z,8.52
